»·PEaware :: N519ER KSAN-KCRQ

N519ER :: KSAN-KCRQ

FLIGHT INFORMATION

Flight Status: Arrived
Operator: Privately registered:
United States
More flights under this callsign
Pilot: Alexander S. (14050)
Aircraft: CESSNA 172 SKYHAWK
(C172)
More flights by this aircraft type
Origin: KSAN San Diego Intl-Lindbergh
United States
Destination: KCRQ McClellan-Palomar
United States
More flights between these airports :: More routes between these airports
Route: BRDR7 JLI
File this flight plan on PilotEdge
Remarks: Practice RNAV approach
Altitude:
(Current/Filed)
8,000ft
Speed:
(Current/Filed)
115kts
Departed: 25-Sep-17 05:59 PM
Arrived: 25-Sep-17 06:53 PM
Distance/Time
Traveled:
24nm/0:54
Distance/Time
To Go:
Arrived

Flight Plot

Page will automatically refresh every two minutes.

Flight plan parsing failed; only flown route is shown


Map Options




Map Legend


Flown Route
Filed Route
Departure Airport
Arrival Airport
Navaid (VOR, NDB)
Fix

Horizontal Profiles

Position Reports

Time Latitude Longitude Heading Altitude Ground
Speed
25-Sep-17 17:48 32.732425 -117.176642 194 22ft 0kts
25-Sep-17 17:49 32.732425 -117.176642 194 22ft 0kts
25-Sep-17 17:50 32.732425 -117.176642 194 22ft 0kts
25-Sep-17 17:51 32.732425 -117.176642 194 22ft 0kts
25-Sep-17 17:52 32.732425 -117.176642 194 22ft 0kts
25-Sep-17 17:53 32.732425 -117.176642 194 22ft 0kts
25-Sep-17 17:54 32.732425 -117.176642 194 22ft 0kts
25-Sep-17 17:55 32.732425 -117.176642 194 22ft 0kts
25-Sep-17 17:56 32.732425 -117.176642 194 22ft 0kts
25-Sep-17 17:57 32.732425 -117.176642 194 22ft 0kts
25-Sep-17 17:58 32.732425 -117.176642 194 22ft 0kts
25-Sep-17 17:59 32.732068 -117.176563 167 21ft 10kts
25-Sep-17 18:00 32.731434 -117.176376 113 20ft 13kts
25-Sep-17 18:01 32.730917 -117.175471 139 21ft 0kts
25-Sep-17 18:02 32.730917 -117.175471 139 21ft 0kts
25-Sep-17 18:03 32.731455 -117.181141 286 100ft 71kts
25-Sep-17 18:04 32.736115 -117.203225 288 1181ft 70kts
25-Sep-17 18:05 32.743027 -117.225774 294 2148ft 73kts
25-Sep-17 18:06 32.749273 -117.249262 293 3059ft 76kts
25-Sep-17 18:07 32.756643 -117.272382 292 3906ft 77kts
25-Sep-17 18:08 32.763769 -117.297188 286 4700ft 81kts
25-Sep-17 18:09 32.746706 -117.307579 139 5383ft 102kts
25-Sep-17 18:10 32.726756 -117.283830 126 6051ft 105kts
25-Sep-17 18:11 32.707450 -117.258935 115 6707ft 103kts
25-Sep-17 18:12 32.688272 -117.235966 139 7379ft 99kts
25-Sep-17 18:13 32.668333 -117.212343 138 7914ft 106kts
25-Sep-17 18:14 32.644005 -117.187642 139 7984ft 113kts
25-Sep-17 18:15 32.620761 -117.161877 107 8022ft 112kts
25-Sep-17 18:16 32.615108 -117.124405 96 8033ft 119kts
25-Sep-17 18:17 32.611582 -117.085228 89 8004ft 121kts
25-Sep-17 18:18 32.611552 -117.045994 87 7995ft 120kts
25-Sep-17 18:19 32.609669 -117.006258 89 7983ft 120kts
25-Sep-17 18:20 32.609578 -116.966848 81 7965ft 121kts
25-Sep-17 18:21 32.613819 -116.928118 78 8013ft 118kts
25-Sep-17 18:22 32.619806 -116.891114 80 8048ft 117kts
25-Sep-17 18:23 32.623648 -116.852131 83 8038ft 121kts
25-Sep-17 18:24 32.625696 -116.812540 83 8038ft 120kts
25-Sep-17 18:25 32.630427 -116.773576 51 7975ft 121kts
25-Sep-17 18:26 32.658736 -116.758303 14 8028ft 113kts
25-Sep-17 18:27 32.688769 -116.748419 13 8044ft 112kts
25-Sep-17 18:28 32.714859 -116.739634 16 8036ft 113kts
25-Sep-17 18:29 32.742092 -116.728179 18 8046ft 113kts
25-Sep-17 18:30 32.772267 -116.717119 15 7993ft 117kts
25-Sep-17 18:31 32.802194 -116.704334 18 7992ft 114kts
25-Sep-17 18:32 32.831337 -116.689959 17 8045ft 109kts
25-Sep-17 18:33 32.859398 -116.690868 323 7715ft 112kts
25-Sep-17 18:34 32.884013 -116.712162 331 7182ft 111kts
25-Sep-17 18:35 32.913370 -116.724195 343 6453ft 122kts
25-Sep-17 18:36 32.942974 -116.731072 352 5701ft 93kts
25-Sep-17 18:37 32.967006 -116.734587 323 4980ft 84kts
25-Sep-17 18:38 32.985223 -116.754928 317 4869ft 97kts
25-Sep-17 18:39 33.005409 -116.778943 312 4882ft 108kts
25-Sep-17 18:40 33.025746 -116.804658 316 4848ft 98kts
25-Sep-17 18:41 33.045958 -116.828360 311 4791ft 102kts
25-Sep-17 18:42 33.064370 -116.853946 316 4752ft 102kts
25-Sep-17 18:43 33.082925 -116.878341 307 4812ft 99kts
25-Sep-17 18:44 33.101070 -116.902265 312 4811ft 99kts
25-Sep-17 18:45 33.119038 -116.927932 308 4798ft 101kts
25-Sep-17 18:46 33.137083 -116.954063 310 4790ft 100kts
25-Sep-17 18:47 33.155597 -116.979833 309 4768ft 102kts
25-Sep-17 18:48 33.169435 -117.008377 258 4675ft 106kts
25-Sep-17 18:49 33.163636 -117.043889 266 3982ft 107kts
25-Sep-17 18:50 33.160598 -117.079146 250 3263ft 102kts
25-Sep-17 18:51 33.153771 -117.114077 265 3126ft 107kts
25-Sep-17 18:52 33.149625 -117.148474 259 2408ft 106kts
25-Sep-17 18:53 33.145149 -117.182204 264 1971ft 102kts
25-Sep-17 18:54 33.139343 -117.216264 255 1334ft 107kts
25-Sep-17 18:55 33.133219 -117.248132 262 921ft 76kts
25-Sep-17 18:56 33.129982 -117.269219 260 395ft 58kts
25-Sep-17 18:57 33.128151 -117.278920 154 309ft 2kts
25-Sep-17 18:58 33.127492 -117.278968 210 309ft 0kts

Navigation Log

Ident Type
Flight plan parsing failed, navigation log unavailable